Аэропорт
Чита (UIAA)

 UIAA / HTA
ЗЦ Новосибирск
Иркутск (UIII)
Иркутск (UIII)
 52.02630, 113.30600  / 2272 ft

 UIAA 140200Z 1403/1503 24003G08MPS 5000 BR SCT030CB TEMPO 1409/1422 3100 -SHSN BR BKN014CB
UIAA (AIP 1605), UIAA (DATA-TEXTS-TABLES)
показать схемы
Название сценария Тип сценария Flight Simulator 9 Flight Simulator X Prepar3D v2 Prepar3D v3 Prepar3D v4 xPlane
Чита 2013 бесплатный
Кадала бесплатный

 

 

Аэропорт Чита (Кадала) - международный аэропорт федераьного значения, расположенный в 13,5 километрах Западнее города Читы и в 2,5 километрах Юго-Западнее озера Кенон. Город Чита - столица Забайкальского края (входит в состав Сибирского Федерального Округа).

 

Характеристика взлетно-посадочной полосы и оборудования

ВПП МПУ Размеры (м.) Превышение (м.) Освещение ДПРМ БПРМ ИЛС
11 109° 2799х56 693 --- 518 (ZM) 553 (Z)
---
29 289° 2799х56 670,8 ОВИ-1 (ICAO CAT. I) 518 (DG) 553 (D) 110.300

 

Средства связи ОВД

Позиция Обозначение Позывной (РУС) Позывной (ENG) Частота
Контроль UIII_CTR Иркутск-Контроль Irkutsk-Control 133.400
Подход UIAA_APP Чита-Подход Chita-Approach 122.000
Вышка UIAA_TWR Чита-Вышка Chita-Tower 118.100

 



2018 © VATRUS division